| time (UTC) | temp C | wind direction | speed KPH | gust KPH | rain 1hr cm | rain 24hr cm | rain mn cm | humidity % | barometer mb |
| 20260902014542 | 25 | 298 | 8.0 | 9.7 | 0.00 | 0.00 | 0.00 | 35 | 1002.7 |
| 20260902013041 | 25 | 285 | 4.8 | 11.3 | 0.00 | 0.00 | 0.00 | 34 | 1002.7 |
| 20260902011540 | 25 | 285 | 9.7 | 12.9 | 0.00 | 0.00 | 0.00 | 34 | 1002.7 |
| 20260902010046 | 25 | 288 | 8.0 | 11.3 | 0.00 | 0.00 | 0.00 | 35 | 1002.5 |
| 20260902004538 | 25 | 307 | 8.0 | 12.9 | 0.00 | 0.00 | 0.00 | 35 | 1002.5 |
| 20260902003037 | 25 | 304 | 9.7 | 16.1 | 0.00 | 0.00 | 0.00 | 35 | 1002.5 |
| 20260902001536 | 25 | 290 | 11.3 | 16.1 | 0.00 | 0.00 | 0.00 | 34 | 1002.4 |
| 20260902000034 | 25 | 285 | 8.0 | 14.5 | 0.00 | 0.00 | 0.00 | 35 | 1002.5 |
| 20260901234532 | 25 | 281 | 4.8 | 20.9 | 0.00 | 0.00 | 0.00 | 36 | 1002.4 |
| 20260901233031 | 26 | 288 | 8.0 | 14.5 | 0.00 | 0.00 | 0.00 | 35 | 1002.5 |
| 20260901231528 | 26 | 338 | 11.3 | 16.1 | 0.00 | 0.00 | 0.00 | 36 | 1002.7 |
| 20260901230038 | 25 | 284 | 6.4 | 12.9 | 0.00 | 0.00 | 0.00 | 36 | 1002.8 |
| 20260901224523 | 25 | 253 | 8.0 | 16.1 | 0.00 | 0.00 | 0.00 | 36 | 1003.0 |
| 20260901223020 | 25 | 293 | 9.7 | 16.1 | 0.00 | 0.00 | 0.00 | 37 | 1003.3 |
| 20260901221516 | 24 | 213 | 4.8 | 9.7 | 0.00 | 0.00 | 0.00 | 39 | 1003.4 |
| 20260901220013 | 23 | 221 | 3.2 | 11.3 | 0.00 | 0.00 | 0.00 | 40 | 1003.5 |
| 20260901214512 | 23 | 217 | 6.4 | 9.7 | 0.00 | 0.00 | 0.00 | 40 | 1003.5 |
| 20260901213033 | 23 | 236 | 3.2 | 11.3 | 0.00 | 0.00 | 0.00 | 40 | 1003.7 |
| 20260901211516 | 23 | 255 | 4.8 | 16.1 | 0.00 | 0.00 | 0.00 | 39 | 1003.8 |
| 20260901210018 | 23 | 242 | 6.4 | 14.5 | 0.00 | 0.00 | 0.00 | 38 | 1004.0 |
| 20260901204509 | 23 | 194 | 8.0 | 14.5 | 0.00 | 0.00 | 0.00 | 38 | 1004.2 |
| 20260901203007 | 23 | 211 | 11.3 | 16.1 | 0.00 | 0.00 | 0.00 | 39 | 1004.5 |
| 20260901201501 | 22 | 260 | 6.4 | 20.9 | 0.00 | 0.00 | 0.00 | 43 | 1004.5 |
| 20260901200058 | 21 | 257 | 16.1 | 20.9 | 0.00 | 0.00 | 0.00 | 46 | 1004.6 |
| 20260901194557 | 21 | 250 | 16.1 | 24.1 | 0.00 | 0.00 | 0.00 | 46 | 1004.7 |
| 20260901193101 | 21 | 278 | 20.9 | 30.6 | 0.00 | 0.00 | 0.00 | 43 | 1004.5 |
| 20260901191559 | 21 | 293 | 8.0 | 17.7 | 0.00 | 0.00 | 0.00 | 37 | 1004.4 |
| 20260901190054 | 21 | 360 | 4.8 | 8.0 | 0.00 | 0.00 | 0.00 | 37 | 1004.2 |
| 20260901184553 | 21 | 75 | 4.8 | 6.4 | 0.00 | 0.00 | 0.00 | 38 | 1005.4 |
| 20260901183053 | 21 | 46 | 1.6 | 3.2 | 0.00 | 0.00 | 0.00 | 38 | 1005.7 |
| 20260901181548 | 21 | 332 | 4.8 | 8.0 | 0.00 | 0.00 | 0.00 | 39 | 1005.5 |
| 20260901180045 | 20 | 51 | 3.2 | 6.4 | 0.00 | 0.00 | 0.00 | 40 | 1005.2 |
| 20260901174543 | 20 | 127 | 1.6 | 4.8 | 0.00 | 0.00 | 0.00 | 40 | 1005.6 |
| 20260901173041 | 20 | 134 | 3.2 | 6.4 | 0.00 | 0.00 | 0.00 | 41 | 1005.6 |
| 20260901171539 | 19 | 205 | 1.6 | 8.0 | 0.00 | 0.00 | 0.00 | 42 | 1005.9 |
| 20260901170036 | 19 | 248 | 4.8 | 8.0 | 0.00 | 0.00 | 0.00 | 40 | 1005.8 |
| 20260901164537 | 18 | 229 | 4.8 | 9.7 | 0.00 | 0.00 | 0.00 | 42 | 1005.7 |
| 20260901163034 | 18 | 143 | 3.2 | 9.7 | 0.00 | 0.00 | 0.00 | 39 | 1005.0 |
| 20260901161536 | 18 | 89 | 3.2 | 6.4 | 0.00 | 0.00 | 0.00 | 41 | 1005.2 |
| 20260901160035 | 18 | 111 | 4.8 | 6.4 | 0.00 | 0.00 | 0.00 | 41 | 1005.0 |
| 20260901154527 | 17 | 86 | 6.4 | 6.4 | 0.00 | 0.00 | 0.00 | 41 | 1005.3 |
| 20260901153028 | 16 | 276 | 0.0 | 6.4 | 0.00 | 0.00 | 0.00 | 43 | 1005.5 |
| 20260901151526 | 17 | 276 | 4.8 | 8.0 | 0.00 | 0.00 | 0.00 | 42 | 1005.6 |
| 20260901150023 | 16 | 83 | 1.6 | 6.4 | 0.00 | 0.00 | 0.00 | 42 | 1005.1 |
| 20260901144521 | 15 | 105 | 6.4 | 9.7 | 0.00 | 0.00 | 0.00 | 44 | 1004.9 |
| 20260901143022 | 15 | 93 | 8.0 | 11.3 | 0.00 | 0.00 | 0.00 | 44 | 1004.7 |
| 20260901141521 | 15 | 94 | 4.8 | 8.0 | 0.00 | 0.00 | 0.00 | 42 | 1004.6 |
| 20260901140018 | 15 | 90 | 8.0 | 11.3 | 0.00 | 0.00 | 0.00 | 42 | 1004.4 |
| 20260901134516 | -17 | 0.0 | 0.0 | 0.00 | 0.00 | 0.00 | 1004.2 | ||
| 20260901133011 | -17 | 0.0 | 0.0 | 0.00 | 0.00 | 0.00 | 1004.1 | ||
| 20260901131519 | -17 | 0.0 | 0.0 | 0.00 | 0.00 | 0.00 | 1004.0 | ||
| 20260901130002 | -17 | 0.0 | 0.0 | 0.00 | 0.00 | 0.00 | 1004.0 | ||
| 20260901124558 | -17 | 0.0 | 0.0 | 0.00 | 0.00 | 0.00 | 1003.9 | ||
| 20260901123055 | -17 | 0.0 | 0.0 | 0.00 | 0.00 | 0.00 | 1003.8 | ||
| 20260901121549 | -17 | 0.0 | 0.0 | 0.00 | 0.00 | 0.00 | 1003.8 | ||
| 20260901120047 | -17 | 0.0 | 0.0 | 0.00 | 0.00 | 0.00 | 1003.9 | ||
| 20260901114544 | -17 | 0.0 | 0.0 | 0.00 | 0.00 | 0.00 | 1003.7 | ||
| 20260901113036 | -17 | 0.0 | 0.0 | 0.00 | 0.00 | 0.00 | 1003.9 | ||
| 20260901111531 | -17 | 0.0 | 0.0 | 0.00 | 0.00 | 0.00 | 1003.8 | ||
| 20260901110032 | -17 | 0.0 | 0.0 | 0.00 | 0.00 | 0.00 | 1004.0 | ||
| 20260901104524 | -17 | 0.0 | 0.0 | 0.00 | 0.00 | 0.00 | 1004.1 | ||
| 20260901103018 | -17 | 0.0 | 0.0 | 0.00 | 0.00 | 0.00 | 1004.3 | ||
| 20260901101513 | -17 | 0.0 | 0.0 | 0.00 | 0.00 | 0.00 | 1004.4 | ||
| 20260901100010 | -17 | 0.0 | 0.0 | 0.00 | 0.00 | 0.00 | 1004.5 | ||
| 20260901094516 | 15 | 87 | 8.0 | 9.7 | 0.00 | 0.00 | 0.00 | 43 | 1004.6 |
| 20260901093006 | 16 | 94 | 3.2 | 4.8 | 0.00 | 0.00 | 0.00 | 43 | 1004.6 |
| 20260901091505 | 15 | 86 | 6.4 | 9.7 | 0.00 | 0.00 | 0.00 | 44 | 1004.7 |
| 20260901090008 | 16 | 92 | 6.4 | 9.7 | 0.00 | 0.00 | 0.00 | 43 | 1004.7 |
| 20260901084601 | 15 | 87 | 8.0 | 9.7 | 0.00 | 0.00 | 0.00 | 45 | 1004.7 |
| 20260901083059 | 16 | 73 | 4.8 | 8.0 | 0.00 | 0.00 | 0.00 | 44 | 1004.8 |
| 20260901081556 | 16 | 99 | 3.2 | 8.0 | 0.00 | 0.00 | 0.00 | 44 | 1004.8 |
| 20260901080052 | 17 | 97 | 4.8 | 6.4 | 0.00 | 0.00 | 0.00 | 39 | 1004.6 |
| 20260901074550 | 16 | 97 | 6.4 | 8.0 | 0.00 | 0.00 | 0.00 | 42 | 1004.7 |
| 20260901073049 | 16 | 77 | 4.8 | 8.0 | 0.00 | 0.00 | 0.00 | 41 | 1004.6 |
| 20260901071557 | 16 | 93 | 6.4 | 9.7 | 0.00 | 0.00 | 0.00 | 43 | 1004.5 |
| 20260901070042 | 17 | 98 | 4.8 | 8.0 | 0.00 | 0.00 | 0.00 | 41 | 1004.5 |
| 20260901064543 | 19 | 142 | 1.6 | 4.8 | 0.00 | 0.00 | 0.00 | 35 | 1004.5 |
| 20260901063041 | 18 | 70 | 4.8 | 6.4 | 0.00 | 0.00 | 0.00 | 35 | 1004.4 |
| 20260901061541 | 20 | 106 | 0.0 | 3.2 | 0.00 | 0.00 | 0.00 | 34 | 1004.3 |
| 20260901060040 | 18 | 89 | 3.2 | 6.4 | 0.00 | 0.00 | 0.00 | 36 | 1004.5 |
| 20260901054540 | 18 | 85 | 3.2 | 3.2 | 0.00 | 0.00 | 0.00 | 36 | 1004.5 |
| 20260901053044 | 18 | 210 | 0.0 | 3.2 | 0.00 | 0.00 | 0.00 | 36 | 1004.6 |
| 20260901051538 | 19 | 261 | 3.2 | 6.4 | 0.00 | 0.00 | 0.00 | 35 | 1004.6 |
| 20260901050038 | 18 | 108 | 3.2 | 6.4 | 0.00 | 0.00 | 0.00 | 35 | 1004.5 |
| 20260901044544 | 19 | 313 | 4.8 | 6.4 | 0.00 | 0.00 | 0.00 | 33 | 1004.5 |
| 20260901043041 | 18 | 294 | 3.2 | 6.4 | 0.00 | 0.00 | 0.00 | 35 | 1004.4 |
| 20260901041537 | 20 | 143 | 3.2 | 4.8 | 0.00 | 0.00 | 0.00 | 33 | 1004.4 |
| 20260901040035 | 22 | 94 | 1.6 | 4.8 | 0.00 | 0.00 | 0.00 | 27 | 1004.4 |
| 20260901034536 | 22 | 346 | 1.6 | 4.8 | 0.00 | 0.00 | 0.00 | 28 | 1004.4 |
| 20260901033033 | 22 | 87 | 0.0 | 6.4 | 0.00 | 0.00 | 0.00 | 29 | 1004.3 |
| 20260901031533 | 23 | 91 | 6.4 | 9.7 | 0.00 | 0.00 | 0.00 | 27 | 1004.2 |
| 20260901030032 | 24 | 51 | 6.4 | 9.7 | 0.00 | 0.00 | 0.00 | 26 | 1004.2 |
| 20260901024531 | 24 | 56 | 6.4 | 9.7 | 0.00 | 0.00 | 0.00 | 26 | 1004.2 |
| 20260901023039 | 24 | 58 | 8.0 | 11.3 | 0.00 | 0.00 | 0.00 | 26 | 1004.2 |
| 20260901021531 | 25 | 53 | 6.4 | 9.7 | 0.00 | 0.00 | 0.00 | 24 | 1004.3 |
| 20260901020027 | 27 | 32 | 1.6 | 6.4 | 0.00 | 0.00 | 0.00 | 23 | 1004.4 |